createdAt,value
2018-08-30T00:02:51.732Z,15.40
2018-08-30T00:03:24.778Z,15.55
2018-08-30T00:03:58.576Z,14.90
2018-08-30T00:47:01.740Z,13.90
2018-08-30T00:47:34.788Z,14.73
2018-08-30T00:48:07.825Z,13.48
2018-08-30T01:33:20.102Z,5.40
2018-08-30T01:33:53.134Z,5.47
2018-08-30T01:34:26.247Z,5.30
2018-08-30T01:34:59.449Z,5.57
2018-08-30T04:24:18.174Z,4.90
2018-08-30T04:24:51.959Z,5.43
2018-08-30T04:25:25.763Z,5.37
2018-08-30T04:25:59.550Z,6.10
2018-08-30T04:26:33.342Z,5.43
2018-08-30T04:27:07.218Z,5.47
2018-08-30T04:27:40.348Z,6.05
2018-08-30T04:28:13.388Z,5.28
2018-08-30T04:28:46.399Z,5.68
2018-08-30T04:29:19.433Z,5.90
2018-08-30T04:29:53.231Z,5.82
2018-08-30T04:30:26.281Z,5.43
2018-08-30T04:30:59.326Z,5.70
2018-08-30T04:31:32.426Z,5.32
2018-08-30T04:32:05.417Z,5.12
2018-08-30T04:32:38.452Z,5.12
2018-08-30T04:33:11.480Z,5.87
2018-08-30T04:33:44.537Z,5.10
2018-08-30T04:34:17.576Z,5.45
2018-08-30T04:34:50.595Z,5.50
2018-08-30T04:35:24.395Z,4.70
2018-08-30T04:35:57.431Z,5.80
2018-08-30T04:36:30.473Z,5.45
2018-08-30T04:37:03.505Z,6.05
2018-08-30T04:37:37.332Z,6.53
2018-08-30T04:38:10.719Z,5.28
2018-08-30T04:38:43.996Z,5.90
2018-08-30T04:39:17.277Z,5.90
2018-08-30T04:39:50.320Z,6.00
2018-08-30T04:40:24.119Z,5.97
2018-08-30T04:40:57.157Z,6.28
2018-08-30T04:41:30.188Z,6.12
2018-08-30T04:42:03.220Z,6.07
2018-08-30T04:42:36.264Z,5.87
2018-08-30T04:43:09.267Z,6.53
2018-08-30T04:43:42.317Z,6.53
2018-08-30T04:44:15.339Z,6.28
2018-08-30T04:44:48.379Z,6.50
2018-08-30T04:45:21.412Z,6.53
2018-08-30T04:45:54.435Z,6.32
2018-08-30T04:46:27.456Z,6.20
2018-08-30T04:47:00.500Z,6.25
2018-08-30T04:47:34.303Z,6.00
2018-08-30T04:48:08.105Z,5.68
2018-08-30T04:48:41.140Z,6.60
2018-08-30T04:49:14.172Z,6.18
2018-08-30T04:49:47.220Z,6.37
2018-08-30T04:50:21.049Z,6.75
2018-08-30T04:50:54.051Z,6.43
2018-08-30T04:51:27.091Z,6.70
2018-08-30T04:52:00.130Z,6.70
2018-08-30T04:52:33.932Z,6.72
2018-08-30T04:53:06.956Z,6.72
2018-08-30T04:53:39.992Z,6.80
2018-08-30T04:54:13.026Z,6.60
2018-08-30T04:54:46.063Z,6.68
2018-08-30T04:55:19.089Z,7.05
2018-08-30T04:55:52.119Z,6.82
2018-08-30T04:56:25.170Z,6.72
2018-08-30T04:56:58.464Z,5.60
2018-08-30T04:57:31.477Z,7.20
2018-08-30T04:58:04.503Z,7.20
2018-08-30T04:58:37.703Z,6.32
2018-08-30T04:59:10.725Z,7.25
2018-08-30T04:59:43.751Z,6.75
2018-08-30T05:00:16.790Z,6.32
2018-08-30T05:00:50.575Z,7.15
2018-08-30T05:01:24.382Z,6.70
2018-08-30T05:01:57.411Z,6.90
2018-08-30T05:02:30.449Z,6.25
2018-08-30T05:03:03.520Z,7.05
2018-08-30T05:03:36.536Z,6.72
2018-08-30T05:04:09.584Z,6.50
2018-08-30T05:04:42.615Z,6.90
2018-08-30T05:05:15.660Z,7.12
2018-08-30T05:05:48.692Z,6.50
2018-08-30T05:06:21.733Z,6.97
2018-08-30T05:06:55.540Z,6.65
2018-08-30T05:07:28.583Z,7.20
2018-08-30T05:08:01.625Z,6.55
2018-08-30T05:08:34.663Z,6.82
2018-08-30T05:09:07.711Z,6.75
2018-08-30T05:09:40.742Z,5.95
2018-08-30T05:10:13.777Z,6.85
2018-08-30T05:10:47.576Z,7.15
2018-08-30T05:11:20.600Z,6.20
2018-08-30T05:11:53.960Z,6.20
2018-08-30T05:12:26.980Z,6.87
2018-08-30T05:13:00.028Z,7.12
2018-08-30T05:13:33.055Z,6.37
2018-08-30T05:14:06.095Z,5.82
2018-08-30T05:14:39.126Z,6.10
2018-08-30T05:15:12.152Z,6.45
2018-08-30T05:15:45.188Z,6.00
2018-08-30T05:16:18.246Z,6.97
2018-08-30T05:16:51.279Z,6.62
2018-08-30T05:17:24.312Z,6.82
2018-08-30T05:17:57.339Z,6.35
2018-08-30T05:18:30.387Z,6.28
2018-08-30T05:19:03.432Z,6.28
2018-08-30T05:19:36.612Z,6.78
2018-08-30T05:20:09.624Z,6.12
2018-08-30T05:20:42.655Z,7.05
2018-08-30T05:21:15.692Z,6.32
2018-08-30T05:21:49.490Z,6.65
2018-08-30T05:22:23.286Z,6.62
2018-08-30T05:22:56.320Z,6.28
2018-08-30T05:23:30.244Z,6.68
2018-08-30T05:24:04.085Z,6.25
2018-08-30T05:24:37.108Z,6.72
2018-08-30T05:25:10.136Z,7.05
2018-08-30T05:25:43.161Z,7.32
2018-08-30T05:26:16.956Z,6.70
2018-08-30T05:26:50.754Z,6.70
2018-08-30T05:27:23.794Z,7.25
2018-08-30T05:27:56.834Z,6.60
2018-08-30T05:28:29.869Z,6.43
2018-08-30T05:29:03.672Z,6.30
2018-08-30T05:29:36.710Z,6.57
2018-08-30T05:30:09.736Z,6.25
2018-08-30T05:30:42.766Z,6.75
2018-08-30T05:31:15.799Z,6.72
2018-08-30T05:31:48.828Z,6.80
2018-08-30T05:32:21.855Z,6.60
2018-08-30T05:32:54.884Z,6.65
2018-08-30T05:33:28.677Z,6.78
2018-08-30T05:34:02.480Z,7.20
2018-08-30T05:34:35.527Z,7.15
2018-08-30T05:35:08.572Z,7.25
2018-08-30T05:35:41.669Z,6.35
2018-08-30T05:36:14.621Z,6.80
2018-08-30T05:36:47.668Z,7.12
2018-08-30T05:37:20.696Z,6.93
2018-08-30T05:37:53.720Z,7.40
2018-08-30T05:38:26.743Z,7.78
2018-08-30T05:38:59.777Z,7.05
2018-08-30T05:39:32.828Z,6.70
2018-08-30T05:40:05.862Z,7.03
2018-08-30T05:40:39.008Z,8.20
2018-08-30T05:41:12.043Z,7.62
2018-08-30T05:41:45.064Z,7.90
2018-08-30T05:42:18.103Z,7.50
2018-08-30T05:42:51.120Z,7.28
2018-08-30T05:43:24.148Z,7.37
2018-08-30T05:43:57.246Z,7.97
2018-08-30T05:44:30.331Z,7.93
2018-08-30T05:45:03.347Z,8.68
2018-08-30T05:45:37.160Z,8.23
2018-08-30T05:46:10.201Z,8.50
2018-08-30T05:46:43.260Z,10.30
2018-08-30T05:47:16.283Z,8.13
2018-08-30T05:47:50.088Z,8.57
2018-08-30T05:48:23.128Z,9.25
2018-08-30T05:48:56.172Z,9.05
2018-08-30T05:49:29.203Z,8.63
2018-08-30T05:50:02.239Z,8.68
2018-08-30T05:50:35.289Z,8.18
2018-08-30T05:51:08.336Z,8.88
2018-08-30T05:51:41.367Z,9.27
2018-08-30T05:52:14.408Z,9.02
2018-08-30T05:52:47.451Z,8.82
2018-08-30T05:53:20.500Z,9.15
2018-08-30T05:53:53.531Z,9.25
2018-08-30T05:54:26.575Z,8.98
2018-08-30T05:54:59.608Z,9.95
2018-08-30T05:55:32.660Z,9.25
2018-08-30T05:56:05.692Z,9.38
2018-08-30T05:56:39.488Z,9.38
2018-08-30T05:57:13.291Z,9.38
2018-08-30T05:57:46.333Z,9.55
2018-08-30T05:58:19.359Z,9.65
2018-08-30T05:58:52.395Z,10.40
2018-08-30T05:59:26.210Z,9.55
2018-08-30T05:59:59.243Z,9.43
2018-08-30T06:00:32.280Z,9.48
2018-08-30T06:01:05.314Z,10.05
2018-08-30T06:01:39.120Z,9.25
2018-08-30T06:02:12.146Z,9.65
2018-08-30T06:02:45.195Z,9.95
2018-08-30T06:03:18.232Z,10.05
2018-08-30T06:03:52.027Z,9.60
2018-08-30T06:04:25.850Z,9.75
2018-08-30T06:04:59.656Z,9.05
2018-08-30T06:05:32.689Z,9.23
2018-08-30T06:06:05.728Z,9.63
2018-08-30T06:06:38.774Z,9.85
2018-08-30T06:07:11.822Z,9.93
2018-08-30T06:07:44.856Z,9.75
2018-08-30T06:08:17.953Z,9.02
2018-08-30T06:08:50.920Z,10.27
2018-08-30T06:09:23.987Z,10.35
2018-08-30T06:09:57.029Z,9.82
2018-08-30T06:10:30.077Z,11.05
2018-08-30T06:11:03.878Z,10.50
2018-08-30T06:11:36.916Z,9.77
2018-08-30T06:12:10.714Z,9.98
2018-08-30T06:12:44.513Z,9.45
2018-08-30T06:13:18.313Z,9.68
2018-08-30T06:13:51.369Z,10.32
2018-08-30T06:14:24.401Z,9.40
2018-08-30T06:14:58.215Z,10.63
2018-08-30T06:15:31.247Z,10.73
2018-08-30T06:16:04.296Z,10.60
2018-08-30T06:16:38.099Z,10.02
2018-08-30T06:17:11.144Z,9.80
2018-08-30T06:17:44.953Z,10.38
2018-08-30T06:18:18.756Z,10.43
2018-08-30T06:18:52.552Z,11.02
2018-08-30T06:19:25.601Z,9.98
2018-08-30T06:19:58.640Z,9.90
2018-08-30T06:20:32.827Z,11.88
2018-08-30T06:21:05.831Z,10.95
2018-08-30T06:21:39.164Z,10.98
2018-08-30T06:22:12.460Z,11.20
2018-08-30T06:22:45.509Z,11.20
2018-08-30T06:23:18.548Z,11.32
2018-08-30T06:23:51.595Z,10.48
2018-08-30T06:24:24.756Z,10.68
2018-08-30T06:24:57.796Z,11.07
2018-08-30T06:25:30.844Z,10.40
2018-08-30T06:26:03.896Z,11.15
2018-08-30T06:26:36.973Z,11.70
2018-08-30T06:27:10.030Z,11.30
2018-08-30T06:27:43.074Z,11.82
2018-08-30T06:28:16.119Z,10.75
2018-08-30T06:28:49.157Z,12.23
2018-08-30T06:29:22.396Z,11.32
2018-08-30T06:29:55.400Z,10.88
2018-08-30T06:30:28.440Z,12.70
2018-08-30T06:31:02.245Z,11.07
2018-08-30T06:31:36.075Z,12.30
2018-08-30T06:32:09.107Z,13.20
2018-08-30T06:32:42.191Z,11.48
2018-08-30T06:33:15.181Z,12.10
2018-08-30T06:33:48.512Z,11.32
2018-08-30T06:34:21.565Z,11.68
2018-08-30T06:34:54.620Z,10.80
2018-08-30T06:35:27.654Z,11.88
2018-08-30T06:36:00.697Z,11.75
2018-08-30T06:36:33.731Z,11.98
2018-08-30T06:37:06.981Z,12.88
2018-08-30T06:37:40.784Z,11.18
2018-08-30T06:38:14.595Z,11.85
2018-08-30T06:38:47.677Z,12.07
2018-08-30T06:39:20.667Z,11.10
2018-08-30T06:39:53.715Z,12.50
2018-08-30T06:40:26.768Z,13.13
2018-08-30T06:40:59.804Z,13.00
2018-08-30T06:41:32.864Z,12.75
2018-08-30T06:42:05.889Z,13.23
2018-08-30T06:42:38.931Z,11.82
2018-08-30T06:43:11.984Z,12.77
2018-08-30T06:43:45.042Z,13.15
2018-08-30T06:44:18.079Z,12.00
2018-08-30T06:44:51.121Z,12.05
2018-08-30T06:45:24.168Z,11.02
2018-08-30T06:45:57.424Z,14.32
2018-08-30T06:46:31.223Z,13.85
2018-08-30T06:47:05.032Z,12.95
2018-08-30T06:47:38.064Z,13.48
2018-08-30T06:48:11.874Z,14.05
2018-08-30T06:48:44.987Z,14.75
2018-08-30T06:49:17.960Z,13.90
2018-08-30T06:49:51.022Z,13.50
2018-08-30T06:50:24.051Z,13.15
2018-08-30T06:50:57.080Z,12.55
2018-08-30T06:51:30.124Z,13.30
2018-08-30T06:52:03.928Z,14.57
2018-08-30T06:52:37.232Z,13.70
2018-08-30T06:53:10.264Z,13.18
2018-08-30T06:53:44.055Z,13.50
2018-08-30T06:54:17.884Z,12.43
2018-08-30T06:54:50.936Z,13.25
2018-08-30T06:55:24.744Z,13.55
2018-08-30T06:55:57.776Z,14.25
2018-08-30T06:56:30.909Z,13.30
2018-08-30T06:57:03.849Z,14.23
2018-08-30T06:57:37.668Z,13.65
2018-08-30T06:58:10.696Z,13.65
2018-08-30T06:58:43.740Z,13.98
2018-08-30T06:59:16.784Z,12.82
2018-08-30T06:59:49.844Z,13.15
2018-08-30T07:00:22.895Z,13.38
2018-08-30T07:00:56.144Z,13.13
2018-08-30T07:01:29.315Z,15.07
2018-08-30T07:02:02.361Z,14.23
2018-08-30T07:02:35.395Z,13.55
2018-08-30T07:03:08.460Z,14.00
2018-08-30T07:03:41.483Z,13.38
2018-08-30T07:04:14.607Z,13.27
2018-08-30T07:04:47.804Z,12.98
2018-08-30T07:05:20.860Z,14.65
2018-08-30T07:05:53.891Z,13.20
2018-08-30T07:06:26.928Z,13.25
2018-08-30T07:06:59.959Z,13.90
2018-08-30T07:07:33.011Z,13.30
2018-08-30T07:08:07.205Z,13.23
2018-08-30T07:08:40.181Z,12.98
2018-08-30T07:09:13.987Z,13.52
2018-08-30T07:09:47.032Z,14.23
2018-08-30T07:10:20.088Z,13.23
2018-08-30T07:10:53.121Z,13.75
2018-08-30T07:11:26.156Z,14.10
2018-08-30T07:11:59.964Z,13.70
2018-08-30T07:12:33.015Z,14.45
2018-08-30T07:13:06.054Z,14.27
2018-08-30T07:13:39.096Z,13.55
2018-08-30T07:14:12.344Z,14.38
2018-08-30T07:14:45.409Z,13.15
2018-08-30T07:15:18.447Z,13.88
2018-08-30T07:15:51.517Z,13.30
2018-08-30T07:16:24.561Z,13.38
2018-08-30T07:16:58.373Z,13.00
2018-08-30T07:17:31.399Z,13.05
2018-08-30T07:18:04.441Z,13.75
2018-08-30T07:18:37.473Z,13.35
2018-08-30T07:19:10.515Z,14.43
2018-08-30T07:19:43.562Z,13.90
2018-08-30T07:20:16.627Z,14.57
2018-08-30T07:20:49.660Z,14.23
2018-08-30T07:21:22.696Z,13.85
2018-08-30T07:21:55.755Z,15.05
2018-08-30T07:22:28.800Z,13.52
2018-08-30T07:23:02.595Z,13.93
2018-08-30T07:23:36.406Z,14.73
2018-08-30T07:24:10.244Z,13.07
2018-08-30T07:24:43.236Z,13.85
2018-08-30T07:25:17.056Z,14.20
2018-08-30T07:25:50.097Z,12.70
2018-08-30T07:26:23.148Z,14.80
2018-08-30T07:26:56.195Z,14.48
2018-08-30T07:27:29.248Z,14.52
2018-08-30T07:28:02.277Z,13.75
2018-08-30T07:28:35.432Z,13.32
2018-08-30T07:29:08.385Z,13.02
2018-08-30T07:29:41.425Z,13.60
2018-08-30T07:30:14.493Z,13.55
2018-08-30T07:30:47.543Z,14.32
2018-08-30T07:31:20.601Z,14.23
2018-08-30T07:31:53.633Z,13.73
2018-08-30T07:32:27.440Z,13.45
2018-08-30T07:33:01.236Z,14.20
2018-08-30T07:33:34.281Z,13.18
2018-08-30T07:34:07.430Z,14.23
2018-08-30T07:34:40.951Z,13.98
2018-08-30T07:35:14.076Z,13.80
2018-08-30T07:35:47.028Z,14.55
2018-08-30T07:36:20.065Z,13.38
2018-08-30T07:36:53.112Z,14.15
2018-08-30T07:37:26.144Z,13.45
2018-08-30T07:37:59.187Z,14.65
2018-08-30T07:38:32.219Z,14.48
2018-08-30T07:39:05.413Z,13.93
2018-08-30T07:39:38.463Z,14.52
2018-08-30T07:40:11.569Z,13.50
2018-08-30T07:40:44.603Z,14.07
2018-08-30T07:41:18.425Z,14.13
2018-08-30T07:41:51.447Z,13.48
2018-08-30T07:42:24.475Z,14.63
2018-08-30T07:42:57.531Z,13.05
2018-08-30T07:43:30.564Z,13.98
2018-08-30T07:44:03.677Z,13.43
2018-08-30T07:44:36.712Z,14.63
2018-08-30T07:45:09.719Z,13.15
2018-08-30T07:45:42.771Z,15.18
2018-08-30T07:46:15.825Z,14.23
2018-08-30T07:46:48.873Z,13.93
2018-08-30T07:47:22.012Z,14.18
2018-08-30T07:47:54.939Z,14.15
2018-08-30T07:48:28.002Z,13.20
2018-08-30T07:49:01.039Z,13.62
2018-08-30T07:49:34.079Z,12.43
2018-08-30T07:50:07.115Z,13.60
2018-08-30T07:50:40.164Z,13.93
2018-08-30T07:51:13.201Z,12.77
2018-08-30T07:51:46.268Z,12.95
2018-08-30T07:52:19.324Z,13.10
2018-08-30T07:52:52.357Z,13.25
2018-08-30T07:53:26.171Z,13.07
2018-08-30T07:53:59.211Z,12.85
2018-08-30T07:54:32.304Z,13.40
2018-08-30T07:55:06.322Z,12.95
2018-08-30T07:55:39.376Z,13.50
2018-08-30T07:56:12.428Z,13.52
2018-08-30T07:56:45.468Z,12.60
2018-08-30T07:57:18.559Z,12.07
2018-08-30T07:57:51.555Z,12.70
2018-08-30T07:58:24.584Z,13.38
2018-08-30T07:58:57.640Z,13.57
2018-08-30T07:59:30.673Z,12.90
2018-08-30T08:00:03.774Z,12.73
2018-08-30T08:00:36.789Z,13.85
2018-08-30T08:01:10.597Z,13.60
2018-08-30T08:01:43.672Z,12.18
2018-08-30T08:02:16.705Z,14.00
2018-08-30T08:02:49.750Z,12.25
2018-08-30T08:03:23.551Z,13.40
2018-08-30T08:03:57.347Z,13.48
2018-08-30T08:04:31.150Z,12.95
2018-08-30T08:05:04.197Z,12.32
2018-08-30T08:05:37.264Z,13.48
2018-08-30T08:06:10.462Z,13.02
2018-08-30T08:06:43.352Z,12.05
2018-08-30T08:07:17.175Z,13.13
2018-08-30T08:07:50.182Z,13.45
2018-08-30T08:08:23.222Z,13.20
2018-08-30T08:08:56.393Z,12.55
2018-08-30T08:09:29.443Z,13.70
2018-08-30T08:10:02.484Z,13.05
2018-08-30T08:10:35.507Z,12.68
2018-08-30T08:11:08.577Z,12.60
2018-08-30T08:11:41.616Z,12.90
2018-08-30T08:12:15.429Z,12.10
2018-08-30T08:12:49.254Z,12.50
2018-08-30T08:13:22.265Z,12.70
2018-08-30T08:13:55.295Z,13.35
2018-08-30T08:14:28.340Z,12.95
2018-08-30T08:15:02.149Z,13.07
2018-08-30T08:15:35.187Z,13.38
2018-08-30T08:16:08.243Z,13.13
2018-08-30T08:16:41.295Z,13.20
2018-08-30T08:17:14.334Z,12.25
2018-08-30T08:17:48.152Z,12.52
2018-08-30T08:18:21.196Z,13.27
2018-08-30T08:18:55.048Z,13.90
2018-08-30T08:19:28.057Z,13.10
2018-08-30T08:20:01.098Z,12.27
2018-08-30T08:20:34.152Z,13.75
2018-08-30T08:21:07.201Z,13.02
2018-08-30T08:21:40.235Z,12.27
2018-08-30T08:22:13.275Z,13.38
2018-08-30T08:22:46.312Z,12.60
2018-08-30T08:23:19.472Z,12.20
2018-08-30T08:23:53.268Z,12.77
2018-08-30T08:24:26.346Z,13.32
2018-08-30T08:24:59.360Z,13.52
2018-08-30T08:25:32.554Z,12.52
2018-08-30T08:26:05.597Z,12.52
2018-08-30T08:26:38.636Z,12.40
2018-08-30T08:27:11.687Z,12.68
2018-08-30T08:27:44.724Z,13.02
2018-08-30T08:28:17.764Z,13.23
2018-08-30T08:28:50.807Z,12.93
2018-08-30T08:29:23.862Z,11.52
2018-08-30T08:29:56.905Z,12.23
2018-08-30T08:30:30.712Z,12.60
2018-08-30T08:32:09.532Z,13.05
2018-08-30T08:34:20.844Z,11.80
2018-08-30T08:34:53.894Z,12.25
2018-08-30T08:40:22.825Z,10.95
2018-08-30T08:40:55.864Z,11.63
2018-08-30T08:41:28.972Z,11.18
2018-08-30T08:42:02.050Z,11.40
2018-08-30T08:42:35.108Z,12.10
2018-08-30T08:43:08.144Z,11.27
2018-08-30T08:44:13.692Z,11.18
2018-08-30T08:44:46.747Z,10.82
2018-08-30T08:45:20.028Z,11.07
2018-08-30T08:45:53.084Z,11.20
2018-08-30T08:54:35.721Z,9.77
2018-08-30T08:55:08.860Z,10.60
2018-08-30T08:55:41.887Z,10.40
2018-08-30T08:56:47.491Z,9.80
2018-08-30T09:11:27.815Z,10.27
2018-08-30T09:13:05.992Z,11.30
2018-08-30T09:25:38.451Z,9.90
2018-08-30T09:26:12.260Z,9.20
2018-08-30T09:26:45.378Z,9.70
2018-08-30T09:32:44.207Z,9.40
2018-08-30T09:34:23.256Z,10.00
2018-08-30T09:35:30.340Z,8.70
2018-08-30T09:36:03.383Z,10.10
2018-08-30T09:37:41.471Z,10.20
2018-08-30T09:38:14.617Z,10.57
2018-08-30T09:38:47.676Z,9.90
2018-08-30T09:39:20.730Z,10.38
2018-08-30T09:42:05.367Z,10.10
2018-08-30T09:42:38.401Z,9.48
2018-08-30T09:43:11.572Z,9.82
2018-08-30T09:44:49.815Z,10.55
2018-08-30T09:45:56.121Z,9.25
2018-08-30T09:46:29.155Z,8.75
2018-08-30T09:47:02.234Z,8.93
2018-08-30T09:47:36.055Z,9.48
2018-08-30T09:53:03.519Z,8.60
2018-08-30T09:53:36.545Z,8.93
2018-08-30T09:54:09.571Z,8.95
2018-08-30T09:54:43.365Z,8.65
2018-08-30T09:55:17.179Z,9.15
2018-08-30T09:55:50.292Z,7.75
2018-08-30T09:56:24.023Z,8.18
2018-08-30T09:56:57.236Z,8.57
2018-08-30T09:57:30.222Z,7.93
2018-08-30T09:58:04.024Z,7.72
2018-08-30T09:58:37.053Z,8.13
2018-08-30T09:59:10.339Z,8.27
2018-08-30T09:59:43.386Z,7.87
2018-08-30T10:00:16.417Z,7.43
2018-08-30T10:00:49.448Z,8.50
2018-08-30T10:01:23.249Z,7.97
2018-08-30T10:01:56.371Z,8.45
2018-08-30T10:02:29.415Z,7.82
2018-08-30T10:03:02.497Z,7.90
2018-08-30T10:03:35.522Z,8.23
2018-08-30T10:04:08.944Z,8.25
2018-08-30T10:04:42.017Z,7.97
2018-08-30T10:05:15.022Z,7.95
2018-08-30T10:05:48.036Z,7.80
2018-08-30T10:06:21.071Z,8.68
2018-08-30T10:06:54.121Z,7.82
2018-08-30T10:07:27.196Z,8.00
2018-08-30T10:08:00.216Z,8.80
2018-08-30T10:08:34.028Z,8.15
2018-08-30T10:09:07.857Z,7.97
2018-08-30T10:09:40.900Z,7.97
2018-08-30T10:10:13.935Z,7.18
2018-08-30T10:10:46.972Z,7.55
2018-08-30T10:11:20.001Z,7.75
2018-08-30T10:11:53.039Z,8.05
2018-08-30T10:12:26.091Z,7.55
2018-08-30T10:12:59.123Z,8.05
2018-08-30T10:13:32.160Z,7.97
2018-08-30T10:14:05.215Z,7.47
2018-08-30T10:14:38.504Z,7.72
2018-08-30T10:15:11.539Z,8.38
2018-08-30T10:15:45.376Z,7.95
2018-08-30T10:16:19.124Z,8.27
2018-08-30T10:16:52.932Z,7.75
2018-08-30T10:17:26.974Z,8.00
2018-08-30T10:18:00.010Z,7.78
2018-08-30T10:18:33.051Z,7.50
2018-08-30T10:19:06.309Z,7.60
2018-08-30T10:19:39.339Z,8.05
2018-08-30T10:20:12.437Z,7.80
2018-08-30T10:20:45.480Z,7.95
2018-08-30T10:21:18.568Z,8.60
2018-08-30T10:21:51.569Z,9.02
2018-08-30T10:22:24.615Z,8.40
2018-08-30T10:22:57.644Z,8.20
2018-08-30T10:23:30.700Z,7.75
2018-08-30T10:24:03.958Z,7.53
2018-08-30T10:24:37.771Z,7.50
2018-08-30T10:25:10.823Z,7.35
2018-08-30T10:25:43.896Z,8.50
2018-08-30T10:26:16.890Z,8.65
2018-08-30T10:26:49.940Z,7.95
2018-08-30T10:27:22.980Z,7.82
2018-08-30T10:27:56.022Z,8.10
2018-08-30T10:28:29.048Z,7.68
2018-08-30T10:29:02.881Z,7.75
2018-08-30T10:29:35.896Z,8.40
2018-08-30T10:30:09.035Z,8.07
2018-08-30T10:30:42.068Z,7.60
2018-08-30T10:31:15.099Z,8.02
2018-08-30T10:31:48.116Z,7.53
2018-08-30T10:32:21.926Z,8.98
2018-08-30T10:32:54.959Z,8.27
2018-08-30T10:33:28.000Z,8.60
2018-08-30T10:34:01.115Z,8.63
2018-08-30T10:34:34.176Z,9.20
2018-08-30T10:36:12.217Z,8.30
2018-08-30T10:36:45.263Z,8.80
2018-08-30T10:37:50.850Z,8.02
2018-08-30T10:38:23.880Z,7.90
2018-08-30T10:38:56.908Z,7.40
2018-08-30T10:39:29.940Z,8.55
2018-08-30T10:52:29.271Z,8.88
2018-08-30T10:53:03.280Z,8.85
2018-08-30T10:53:44.858Z,9.07
2018-08-30T10:54:19.256Z,8.07
2018-08-30T10:54:52.413Z,8.25
2018-08-30T10:55:26.344Z,9.75
2018-08-30T10:57:39.850Z,8.47
2018-08-30T10:58:12.914Z,8.15
2018-08-30T10:58:46.159Z,8.40
2018-08-30T10:59:19.955Z,8.35
2018-08-30T10:59:53.027Z,8.30
2018-08-30T11:00:26.874Z,8.83
2018-08-30T11:00:59.975Z,8.38
2018-08-30T11:01:33.108Z,8.48
2018-08-30T11:02:06.184Z,8.25
2018-08-30T11:02:39.273Z,8.38
2018-08-30T11:03:12.447Z,8.50
2018-08-30T11:03:51.921Z,7.00
2018-08-30T11:04:25.839Z,7.35
2018-08-30T11:04:58.735Z,7.25
2018-08-30T11:05:32.630Z,7.65
2018-08-30T11:06:05.699Z,7.00
2018-08-30T11:06:38.725Z,8.20
2018-08-30T11:07:11.758Z,7.43
2018-08-30T11:07:44.800Z,7.03
2018-08-30T11:08:18.755Z,6.97
2018-08-30T11:08:51.801Z,7.68
2018-08-30T11:09:24.833Z,7.25
2018-08-30T11:09:57.956Z,7.22
2018-08-30T11:10:30.911Z,7.32
2018-08-30T11:11:03.978Z,7.68
2018-08-30T11:11:37.005Z,7.07
2018-08-30T11:12:10.609Z,7.47
2018-08-30T11:12:43.904Z,7.00
2018-08-30T11:13:16.954Z,8.07
2018-08-30T11:13:49.947Z,7.28
2018-08-30T11:14:22.988Z,7.37
2018-08-30T11:14:56.008Z,7.60
2018-08-30T11:15:29.040Z,7.40
2018-08-30T11:16:02.091Z,7.15
2018-08-30T11:16:35.114Z,6.95
2018-08-30T11:17:08.156Z,7.75
2018-08-30T11:17:41.204Z,8.05
2018-08-30T11:18:14.231Z,7.43
2018-08-30T11:18:47.302Z,7.93
2018-08-30T11:19:20.393Z,7.35
2018-08-30T11:19:53.361Z,7.80
2018-08-30T11:20:27.152Z,7.05
2018-08-30T11:21:00.180Z,7.70
2018-08-30T11:21:33.216Z,7.65
2018-08-30T11:22:06.505Z,8.32
2018-08-30T11:22:39.552Z,8.60
2018-08-30T11:23:13.354Z,8.27
2018-08-30T11:23:47.204Z,9.02
2018-08-30T11:24:20.975Z,8.82
2018-08-30T11:24:56.792Z,9.32
2018-08-30T11:25:29.864Z,9.32
2018-08-30T11:26:02.889Z,9.57
2018-08-30T11:26:35.914Z,9.13
2018-08-30T11:27:08.948Z,9.52
2018-08-30T11:27:42.014Z,9.02
2018-08-30T11:28:15.085Z,9.27
2018-08-30T11:28:48.108Z,8.98
2018-08-30T11:29:21.168Z,8.95
2018-08-30T11:29:54.192Z,8.52
2018-08-30T11:30:27.223Z,7.55
2018-08-30T11:31:00.240Z,8.27
2018-08-30T11:31:33.504Z,8.27
2018-08-30T11:32:06.535Z,7.90
2018-08-30T11:32:39.568Z,8.52
2018-08-30T11:33:12.629Z,8.07
2018-08-30T11:33:46.430Z,8.23
2018-08-30T11:34:19.476Z,8.23
2018-08-30T11:34:52.508Z,8.25
2018-08-30T11:35:25.549Z,8.00
2018-08-30T11:35:58.588Z,8.48
2018-08-30T11:36:31.659Z,7.78
2018-08-30T11:37:05.453Z,8.57
2018-08-30T11:37:39.192Z,7.28
2018-08-30T11:38:12.185Z,8.13
2018-08-30T11:38:45.195Z,7.68
2018-08-30T11:39:18.987Z,7.62
2018-08-30T11:39:52.011Z,7.25
2018-08-30T11:40:25.292Z,7.22
2018-08-30T11:40:58.307Z,8.10
2018-08-30T11:41:32.564Z,7.32
2018-08-30T11:42:05.760Z,7.15
2018-08-30T11:42:39.724Z,7.20
2018-08-30T11:50:02.028Z,7.00
2018-08-30T11:50:35.079Z,6.68
2018-08-30T11:51:08.182Z,7.32
2018-08-30T11:51:41.185Z,6.80
2018-08-30T11:52:16.790Z,7.40
2018-08-30T11:52:50.548Z,6.12
2018-08-30T11:53:23.599Z,6.15
2018-08-30T11:53:56.676Z,6.40
2018-08-30T11:54:30.478Z,6.35
2018-08-30T11:55:03.557Z,5.53
2018-08-30T11:55:37.525Z,5.82
2018-08-30T11:56:10.586Z,5.85
2018-08-30T11:56:43.660Z,5.85
2018-08-30T11:57:16.957Z,6.00
2018-08-30T11:57:50.234Z,5.90
2018-08-30T11:58:23.344Z,6.15
2018-08-30T11:58:56.421Z,5.47
2018-08-30T11:59:30.090Z,5.57
2018-08-30T12:00:03.945Z,6.18
2018-08-30T12:00:37.057Z,5.70
2018-08-30T12:01:10.224Z,5.72
2018-08-30T12:01:45.160Z,5.93
2018-08-30T12:02:18.360Z,6.03
2018-08-30T12:02:55.876Z,5.78
2018-08-30T12:03:28.916Z,6.12
2018-08-30T12:04:02.022Z,6.25
2018-08-30T12:04:35.310Z,5.45
2018-08-30T12:05:49.320Z,5.60
2018-08-30T12:06:22.345Z,5.68
2018-08-30T12:06:55.422Z,5.97
2018-08-30T12:07:29.307Z,5.47
2018-08-30T12:08:03.198Z,5.72
2018-08-30T12:08:36.245Z,5.53
2018-08-30T12:09:10.236Z,5.60
2018-08-30T12:09:43.497Z,5.32
2018-08-30T12:10:16.536Z,5.82
2018-08-30T12:10:49.580Z,5.43
2018-08-30T12:11:22.764Z,5.78
2018-08-30T12:11:57.786Z,5.93
2018-08-30T12:12:31.389Z,5.85
2018-08-30T12:13:04.414Z,5.80
2018-08-30T12:13:37.449Z,6.22
2018-08-30T12:14:10.507Z,6.60
2018-08-30T12:14:43.561Z,5.95
2018-08-30T12:15:17.169Z,6.12
2018-08-30T12:15:50.167Z,6.40
2018-08-30T12:16:23.372Z,6.00
2018-08-30T12:16:56.390Z,5.40
2018-08-30T12:17:30.449Z,5.97
2018-08-30T12:18:03.939Z,6.12
2018-08-30T12:18:37.000Z,6.25
2018-08-30T12:19:10.044Z,5.68
2018-08-30T12:19:43.067Z,6.10
2018-08-30T12:20:16.092Z,5.72
2018-08-30T12:20:50.023Z,6.22
2018-08-30T12:21:23.691Z,5.75
2018-08-30T12:21:57.479Z,5.55
2018-08-30T12:22:31.259Z,5.90
2018-08-30T12:23:05.070Z,5.30
2018-08-30T12:23:38.867Z,5.72
2018-08-30T12:24:11.896Z,6.35
2018-08-30T12:24:44.930Z,6.03
2018-08-30T12:25:17.956Z,5.28
2018-08-30T12:25:50.970Z,5.80
2018-08-30T12:26:24.000Z,5.95
2018-08-30T12:26:57.041Z,5.43
2018-08-30T12:27:30.071Z,5.80
2018-08-30T12:28:03.868Z,5.85
2018-08-30T12:28:37.790Z,5.95
2018-08-30T12:29:10.768Z,5.93
2018-08-30T12:29:43.733Z,6.05
2018-08-30T12:30:16.788Z,6.18
2018-08-30T12:30:50.593Z,5.18
2018-08-30T12:31:23.666Z,5.60
2018-08-30T12:31:56.667Z,5.47
2018-08-30T12:32:30.538Z,5.43
2018-08-30T12:33:04.232Z,5.53
2018-08-30T12:33:37.315Z,5.25
2018-08-30T12:34:10.390Z,5.78
2018-08-30T12:34:43.401Z,5.30
2018-08-30T12:35:16.557Z,4.97
2018-08-30T12:35:49.645Z,4.68
2018-08-30T12:36:22.503Z,4.93
2018-08-30T12:36:55.496Z,4.25
2018-08-30T12:37:28.513Z,5.03
2018-08-30T12:38:02.295Z,5.37
2018-08-30T12:38:36.091Z,5.07
2018-08-30T12:39:09.893Z,4.87
2018-08-30T12:39:43.032Z,5.25
2018-08-30T12:40:16.043Z,4.50
2018-08-30T12:40:49.000Z,4.72
2018-08-30T12:41:22.797Z,4.95
2018-08-30T12:41:56.622Z,5.12
2018-08-30T12:42:29.648Z,4.32
2018-08-30T12:43:02.974Z,4.90
2018-08-30T12:43:35.778Z,4.55
2018-08-30T12:44:08.794Z,4.40
2018-08-30T12:44:41.770Z,4.37
2018-08-30T16:22:17.983Z,1.75
2018-08-30T16:23:18.659Z,2.00
2018-08-30T16:23:58.780Z,1.98
2018-08-30T16:24:39.906Z,2.40
2018-08-30T16:25:19.296Z,1.75
2018-08-30T16:25:55.298Z,2.22
2018-08-30T16:27:27.403Z,2.20
2018-08-30T16:28:02.005Z,1.90
2018-08-30T16:28:38.783Z,2.05
2018-08-30T16:29:15.476Z,2.10
2018-08-30T16:29:50.807Z,2.00
2018-08-30T16:30:24.796Z,2.17
2018-08-30T16:31:04.595Z,2.03
2018-08-30T16:31:39.587Z,2.12
2018-08-30T16:32:16.676Z,2.03
2018-08-30T16:35:13.281Z,1.60
2018-08-30T16:36:29.816Z,2.75
2018-08-30T16:37:15.132Z,2.30
2018-08-30T16:37:51.105Z,2.03
2018-08-30T16:38:30.128Z,1.73
2018-08-30T16:39:04.329Z,1.90
2018-08-30T16:39:42.624Z,1.90
2018-08-30T16:40:17.929Z,2.30
2018-08-30T16:40:53.689Z,1.75
2018-08-30T16:41:27.911Z,2.70
2018-08-30T16:42:02.904Z,2.45
2018-08-30T16:42:37.559Z,1.95
2018-08-30T16:43:11.699Z,2.35